Terminal Aerodrome Forecast
Issued by NWS Flagstaff, AZ

Home | Current Version | Previous Version | Text Only | Print | Product List | Glossary On
Versions: 1 2 3 4 5 6 7 8 9 10 11 12 13 14 15 16 17 18 19 20 21 22 23 24 25 26 27 28 29 30 31 32
000
FTUS45 KFGZ 241127
TAFFLG
TAF
KFLG 241127Z 2412/2512 25012G19KT 4SM -SHSN BR SCT008 OVC015
      TEMPO 2412/2415 1SM -SHSN BR OVC008
     FM241500 23010KT P6SM VCSH OVC015
     FM241900 24011G18KT 6SM -SHSN SCT009 OVC015
      TEMPO 2421/2501 1SM -SHSN OVC010
     FM250200 25007KT P6SM BKN012=

USA.gov is the U.S. government's official web portal to all federal, state and local government web resources and services.